createdAt,value
2019-04-14T00:02:25.155Z,-1.10
2019-04-14T00:04:55.563Z,-1.10
2019-04-14T00:07:25.410Z,-1.10
2019-04-14T00:09:54.208Z,-1.20
2019-04-14T00:12:23.026Z,-1.40
2019-04-14T00:14:51.551Z,-1.40
2019-04-14T00:17:19.891Z,-1.50
2019-04-14T00:19:50.950Z,-1.60
2019-04-14T00:22:20.328Z,-1.50
2019-04-14T00:24:48.969Z,-1.50
2019-04-14T00:27:17.359Z,-1.50
2019-04-14T00:29:45.806Z,-1.50
2019-04-14T00:32:14.370Z,-1.50
2019-04-14T00:34:59.375Z,-1.60
2019-04-14T00:37:29.499Z,-1.70
2019-04-14T00:40:15.499Z,-1.80
2019-04-14T00:42:54.425Z,-1.80
2019-04-14T00:45:39.404Z,-1.90
2019-04-14T00:48:09.291Z,-1.80
2019-04-14T00:50:32.012Z,-1.90
2019-04-14T00:53:01.210Z,-1.90
2019-04-14T00:55:29.633Z,-1.90
2019-04-14T00:57:59.451Z,-1.90
2019-04-14T01:00:27.929Z,-1.90
2019-04-14T01:02:56.330Z,-1.90
2019-04-14T01:05:24.826Z,-1.90
2019-04-14T01:07:54.393Z,-1.80
2019-04-14T01:10:23.570Z,-1.90
2019-04-14T01:12:52.006Z,-2.00
2019-04-14T01:15:20.300Z,-2.00
2019-04-14T01:17:48.660Z,-2.00
2019-04-14T01:20:17.040Z,-2.10
2019-04-14T01:22:46.608Z,-2.20
2019-04-14T01:25:15.145Z,-2.20
2019-04-14T01:27:43.551Z,-2.20
2019-04-14T01:30:11.910Z,-2.20
2019-04-14T01:32:41.455Z,-2.20
2019-04-14T01:35:09.873Z,-2.20
2019-04-14T01:37:38.262Z,-2.20
2019-04-14T01:40:07.535Z,-2.30
2019-04-14T01:42:36.036Z,-2.30
2019-04-14T01:45:06.118Z,-2.30
2019-04-14T01:47:35.547Z,-2.40
2019-04-14T01:50:04.189Z,-2.50
2019-04-14T01:52:46.090Z,-2.50
2019-04-14T01:55:31.733Z,-2.50
2019-04-14T01:58:16.721Z,-2.60
2019-04-14T02:00:46.778Z,-2.50
2019-04-14T02:03:15.194Z,-2.60
2019-04-14T02:05:43.568Z,-2.70
2019-04-14T02:08:13.188Z,-2.70
2019-04-14T02:10:41.842Z,-2.60
2019-04-14T02:13:11.237Z,-2.70
2019-04-14T02:15:39.873Z,-2.60
2019-04-14T02:18:08.243Z,-2.70
2019-04-14T02:20:36.704Z,-2.60
2019-04-14T02:23:06.159Z,-2.70
2019-04-14T02:25:35.924Z,-2.60
2019-04-14T02:28:05.265Z,-2.70
2019-04-14T02:30:41.726Z,-2.60
2019-04-14T02:33:33.777Z,-2.70
2019-04-14T02:38:51.175Z,-2.70
2019-04-14T02:41:09.281Z,-2.70
2019-04-14T02:48:44.257Z,-2.70
2019-04-14T02:56:10.016Z,-2.70
2019-04-14T02:58:48.427Z,-2.80
2019-04-14T03:01:19.679Z,-2.80
2019-04-14T03:03:41.000Z,-2.80
2019-04-14T03:06:08.414Z,-2.80
2019-04-14T03:08:45.316Z,-2.80
2019-04-14T03:11:10.597Z,-2.80
2019-04-14T03:13:49.582Z,-2.90
2019-04-14T03:16:15.291Z,-2.90
2019-04-14T03:18:58.265Z,-2.90
2019-04-14T03:21:34.659Z,-3.00
2019-04-14T03:24:34.194Z,-2.90
2019-04-14T03:27:00.071Z,-3.00
2019-04-14T03:29:37.150Z,-3.00
2019-04-14T03:32:31.162Z,-3.00
2019-04-14T03:34:51.967Z,-3.10
2019-04-14T03:37:39.505Z,-3.10
2019-04-14T03:39:46.101Z,-3.20
2019-04-14T03:42:21.423Z,-3.20
2019-04-14T03:47:21.673Z,-3.10
2019-04-14T03:50:00.038Z,-3.10
2019-04-14T03:52:18.472Z,-3.00
2019-04-14T03:54:39.988Z,-2.90
2019-04-14T03:56:51.519Z,-3.00
2019-04-14T03:59:19.992Z,-3.00
2019-04-14T04:01:48.324Z,-3.10
2019-04-14T04:04:16.763Z,-3.00
2019-04-14T04:06:51.241Z,-3.00
2019-04-14T04:09:21.474Z,-3.10
2019-04-14T04:11:50.009Z,-3.10
2019-04-14T04:14:18.421Z,-3.10
2019-04-14T04:17:05.733Z,-3.30
2019-04-14T04:19:42.634Z,-3.30
2019-04-14T04:22:21.595Z,-3.30
2019-04-14T04:24:58.388Z,-3.40
2019-04-14T04:27:40.370Z,-3.40
2019-04-14T04:30:10.329Z,-3.40
2019-04-14T04:32:43.308Z,-3.30
2019-04-14T04:35:13.375Z,-3.20
2019-04-14T04:38:00.813Z,-3.20
2019-04-14T04:40:31.774Z,-3.20
2019-04-14T04:43:01.174Z,-3.20
2019-04-14T04:45:29.994Z,-3.00
2019-04-14T04:47:58.510Z,-2.90
2019-04-14T04:50:28.174Z,-2.90
2019-04-14T04:52:56.574Z,-2.80
2019-04-14T04:55:26.271Z,-2.80
2019-04-14T04:57:54.762Z,-2.80
2019-04-14T05:00:24.379Z,-2.80
2019-04-14T05:02:52.785Z,-2.70
2019-04-14T05:05:58.034Z,-2.60
2019-04-14T05:08:26.539Z,-2.60
2019-04-14T05:10:58.928Z,-2.40
2019-04-14T05:13:31.149Z,-2.40
2019-04-14T05:15:59.845Z,-2.30
2019-04-14T05:18:29.024Z,-2.20
2019-04-14T05:20:57.486Z,-2.10
2019-04-14T05:23:25.886Z,-2.10
2019-04-14T05:25:56.067Z,-2.10
2019-04-14T05:28:24.730Z,-2.00
2019-04-14T05:30:53.045Z,-1.90
2019-04-14T05:33:21.442Z,-1.80
2019-04-14T05:35:50.909Z,-1.70
2019-04-14T05:38:19.480Z,-1.70
2019-04-14T05:40:47.849Z,-1.60
2019-04-14T05:43:27.994Z,-1.50
2019-04-14T05:45:48.085Z,-1.40
2019-04-14T05:48:18.162Z,-1.30
2019-04-14T05:50:49.030Z,-1.10
2019-04-14T05:53:17.534Z,-0.90
2019-04-14T05:55:46.034Z,-0.70
2019-04-14T05:58:14.485Z,-0.50
2019-04-14T06:00:43.952Z,-0.50
2019-04-14T06:03:15.067Z,-0.40
2019-04-14T06:05:43.484Z,-0.30
2019-04-14T06:08:11.851Z,-0.10
2019-04-14T06:10:40.771Z,0.00
2019-04-14T06:13:11.676Z,0.20
2019-04-14T06:15:39.423Z,0.40
2019-04-14T06:18:07.746Z,0.50
2019-04-14T06:20:36.118Z,0.60
2019-04-14T06:23:04.501Z,0.80
2019-04-14T06:25:32.932Z,0.90
2019-04-14T06:28:01.385Z,1.10
2019-04-14T06:30:46.587Z,1.20
2019-04-14T06:33:25.562Z,1.40
2019-04-14T06:36:17.787Z,1.70
2019-04-14T06:38:47.818Z,1.90
2019-04-14T06:41:17.676Z,2.00
2019-04-14T06:43:49.121Z,2.20
2019-04-14T06:46:17.813Z,2.30
2019-04-14T06:48:46.188Z,2.50
2019-04-14T06:51:14.578Z,2.60
2019-04-14T06:53:43.011Z,2.70
2019-04-14T06:56:11.465Z,2.90
2019-04-14T06:58:39.949Z,3.00
2019-04-14T07:01:08.293Z,3.00
2019-04-14T07:03:36.671Z,3.20
2019-04-14T07:06:05.050Z,3.20
2019-04-14T07:08:34.172Z,3.30
2019-04-14T07:11:04.263Z,3.40
2019-04-14T07:13:32.624Z,3.40
2019-04-14T07:16:01.053Z,3.50
2019-04-14T07:18:29.414Z,3.50
2019-04-14T07:20:57.811Z,3.50
2019-04-14T07:23:27.853Z,3.60
2019-04-14T07:25:56.212Z,3.80
2019-04-14T07:28:27.627Z,3.90
2019-04-14T07:30:57.738Z,3.90
2019-04-14T07:33:45.648Z,3.90
2019-04-14T07:36:24.627Z,3.80
2019-04-14T07:38:57.391Z,3.80
2019-04-14T07:41:30.207Z,3.80
2019-04-14T07:44:15.206Z,4.10
2019-04-14T07:46:45.534Z,4.10
2019-04-14T07:49:32.881Z,4.20
2019-04-14T07:52:18.935Z,4.20
2019-04-14T07:54:57.692Z,4.40
2019-04-14T07:57:33.745Z,4.50
2019-04-14T08:00:09.569Z,4.70
2019-04-14T08:02:39.581Z,4.60
2019-04-14T08:05:09.645Z,4.60
2019-04-14T08:07:38.098Z,4.60
2019-04-14T08:10:09.540Z,4.80
2019-04-14T08:12:37.989Z,4.90
2019-04-14T08:15:08.056Z,5.00
2019-04-14T08:17:36.435Z,4.90
2019-04-14T08:20:06.235Z,4.70
2019-04-14T08:22:34.734Z,4.80
2019-04-14T08:25:03.434Z,4.80
2019-04-14T08:27:31.850Z,5.00
2019-04-14T08:30:00.280Z,5.20
2019-04-14T08:32:28.784Z,5.30
2019-04-14T08:34:57.273Z,5.20
2019-04-14T08:37:25.638Z,5.30
2019-04-14T08:39:54.139Z,5.50
2019-04-14T08:42:27.212Z,5.60
2019-04-14T08:44:57.761Z,5.60
2019-04-14T08:47:43.537Z,5.80
2019-04-14T08:50:13.605Z,6.10
2019-04-14T08:53:01.700Z,6.20
2019-04-14T08:55:31.737Z,6.10
2019-04-14T08:58:04.089Z,6.30
2019-04-14T09:00:39.204Z,6.40
2019-04-14T09:03:17.988Z,6.30
2019-04-14T09:06:04.488Z,6.20
2019-04-14T09:08:53.472Z,6.40
2019-04-14T09:11:26.958Z,6.40
2019-04-14T09:13:55.346Z,6.40
2019-04-14T09:16:24.270Z,6.60
2019-04-14T09:18:53.744Z,6.60
2019-04-14T09:21:22.326Z,6.20
2019-04-14T09:23:50.711Z,6.50
2019-04-14T09:26:19.168Z,6.70
2019-04-14T09:28:47.552Z,6.80
2019-04-14T09:31:15.848Z,7.10
2019-04-14T09:33:44.247Z,7.20
2019-04-14T09:36:14.309Z,7.40
2019-04-14T09:38:45.391Z,7.50
2019-04-14T09:41:13.809Z,7.50
2019-04-14T09:43:42.286Z,7.50
2019-04-14T09:46:10.733Z,7.70
2019-04-14T09:48:39.093Z,7.70
2019-04-14T09:51:07.478Z,7.80
2019-04-14T09:53:35.854Z,7.70
2019-04-14T09:56:04.234Z,7.90
2019-04-14T09:58:35.190Z,8.00
2019-04-14T10:03:44.441Z,8.20
2019-04-14T10:06:13.024Z,8.10
2019-04-14T10:08:41.382Z,7.90
2019-04-14T10:11:09.874Z,8.00
2019-04-14T10:13:41.056Z,7.30
2019-04-14T10:16:09.429Z,7.40
2019-04-14T10:18:37.796Z,8.00
2019-04-14T10:21:16.883Z,8.10
2019-04-14T10:23:36.150Z,7.80
2019-04-14T10:26:04.594Z,7.40
2019-04-14T10:28:33.549Z,7.50
2019-04-14T10:31:02.023Z,7.60
2019-04-14T10:33:32.093Z,7.90
2019-04-14T10:36:00.589Z,7.80
2019-04-14T10:38:30.514Z,8.00
2019-04-14T10:40:58.959Z,8.20
2019-04-14T10:43:27.324Z,8.30
2019-04-14T10:45:55.829Z,8.60
2019-04-14T10:48:24.258Z,9.10
2019-04-14T10:50:55.980Z,9.70
2019-04-14T10:53:24.430Z,10.80
2019-04-14T10:55:52.795Z,10.90
2019-04-14T10:58:21.254Z,11.50
2019-04-14T11:00:49.786Z,11.40
2019-04-14T11:03:18.193Z,11.60
2019-04-14T11:06:04.502Z,11.20
2019-04-14T11:08:32.963Z,11.10
2019-04-14T11:11:01.330Z,11.50
2019-04-14T11:13:32.535Z,12.30
2019-04-14T11:16:00.953Z,13.20
2019-04-14T11:18:31.253Z,13.00
2019-04-14T11:21:03.615Z,12.90
2019-04-14T11:23:32.163Z,13.70
2019-04-14T11:26:01.785Z,12.50
2019-04-14T11:28:30.131Z,12.40
2019-04-14T11:31:09.919Z,11.50
2019-04-14T11:33:55.924Z,12.30
2019-04-14T11:36:42.429Z,13.00
2019-04-14T11:39:12.763Z,13.10
2019-04-14T11:41:43.493Z,13.40
2019-04-14T11:44:13.475Z,14.50
2019-04-14T11:46:41.918Z,14.40
2019-04-14T11:49:10.301Z,14.20
2019-04-14T11:51:38.725Z,14.50
2019-04-14T11:54:07.156Z,14.30
2019-04-14T11:56:35.457Z,14.50
2019-04-14T11:59:03.920Z,14.10
2019-04-14T12:01:46.164Z,14.40
2019-04-14T12:04:25.003Z,15.00
2019-04-14T12:07:03.785Z,14.70
2019-04-14T12:09:36.484Z,15.20
2019-04-14T12:12:06.798Z,15.30
2019-04-14T12:14:35.142Z,14.50
2019-04-14T12:17:03.846Z,15.20
2019-04-14T12:19:32.237Z,15.00
2019-04-14T12:22:08.062Z,15.20
2019-04-14T12:24:30.796Z,15.00
2019-04-14T12:26:59.194Z,14.70
2019-04-14T12:29:28.292Z,13.90
2019-04-14T12:31:57.434Z,13.80
2019-04-14T12:34:25.881Z,14.40
2019-04-14T12:36:54.245Z,13.90
2019-04-14T12:39:27.978Z,13.30
2019-04-14T12:42:14.591Z,13.30
2019-04-14T12:45:02.108Z,12.90
2019-04-14T12:47:39.862Z,13.00
2019-04-14T12:50:24.264Z,14.40
2019-04-14T12:52:52.738Z,15.00
2019-04-14T12:55:21.190Z,15.50
2019-04-14T12:57:51.264Z,16.40
2019-04-14T13:00:27.684Z,16.00
2019-04-14T13:02:56.468Z,15.00
2019-04-14T13:05:24.831Z,13.80
2019-04-14T13:07:53.222Z,12.80
2019-04-14T13:10:21.590Z,13.10
2019-04-14T13:12:50.090Z,14.00
2019-04-14T13:15:18.542Z,15.30
2019-04-14T13:17:46.843Z,15.90
2019-04-14T13:20:16.006Z,16.50
2019-04-14T13:22:44.459Z,16.20
2019-04-14T13:25:15.789Z,15.80
2019-04-14T13:27:44.285Z,14.40
2019-04-14T13:30:14.381Z,13.00
2019-04-14T13:32:42.761Z,13.10
2019-04-14T13:35:11.535Z,13.90
2019-04-14T13:37:43.011Z,13.30
2019-04-14T13:40:11.407Z,12.00
2019-04-14T13:42:39.841Z,12.60
2019-04-14T13:45:08.226Z,13.50
2019-04-14T13:47:36.682Z,13.00
2019-04-14T13:50:06.723Z,14.10
2019-04-14T13:52:46.754Z,14.30
2019-04-14T13:55:09.838Z,14.90
2019-04-14T13:57:38.238Z,15.20
2019-04-14T14:00:13.946Z,15.60
2019-04-14T14:02:42.980Z,15.50
2019-04-14T14:05:11.410Z,16.20
2019-04-14T14:07:39.867Z,16.20
2019-04-14T14:10:08.505Z,17.30
2019-04-14T14:12:41.412Z,17.70
2019-04-14T14:15:14.247Z,18.10
2019-04-14T14:17:44.262Z,17.30
2019-04-14T14:20:26.393Z,16.90
2019-04-14T14:22:59.825Z,17.10
2019-04-14T14:25:35.718Z,17.60
2019-04-14T14:28:04.155Z,16.30
2019-04-14T14:30:34.205Z,16.30
2019-04-14T14:33:02.641Z,16.70
2019-04-14T14:35:31.089Z,16.50
2019-04-14T14:37:59.405Z,16.50
2019-04-14T14:40:27.843Z,16.50
2019-04-14T14:42:56.270Z,16.50
2019-04-14T14:45:28.778Z,16.90
2019-04-14T14:47:58.790Z,17.80
2019-04-14T14:50:45.007Z,17.80
2019-04-14T14:53:13.377Z,16.60
2019-04-14T14:55:50.771Z,16.80
2019-04-14T14:58:31.138Z,17.20
2019-04-14T15:01:00.699Z,17.40
2019-04-14T15:03:35.979Z,17.50
2019-04-14T15:06:04.796Z,17.30
2019-04-14T15:08:33.101Z,17.60
2019-04-14T15:11:07.182Z,17.80
2019-04-14T15:13:48.226Z,17.90
2019-04-14T15:16:09.056Z,18.10
2019-04-14T15:18:37.453Z,17.60
2019-04-14T15:21:09.078Z,17.50
2019-04-14T15:23:38.900Z,17.70
2019-04-14T15:26:07.249Z,18.20
2019-04-14T15:28:35.633Z,19.10
2019-04-14T15:31:04.130Z,18.60
2019-04-14T15:33:32.704Z,17.30
2019-04-14T15:36:01.355Z,17.30
2019-04-14T15:38:35.078Z,17.50
2019-04-14T15:41:09.490Z,17.90
2019-04-14T15:43:41.668Z,18.60
2019-04-14T15:46:10.064Z,18.60
2019-04-14T15:48:42.606Z,17.50
2019-04-14T15:51:12.766Z,17.80
2019-04-14T15:53:44.944Z,17.60
2019-04-14T15:56:15.011Z,17.10
2019-04-14T15:58:58.259Z,17.10
2019-04-14T16:01:35.423Z,16.90
2019-04-14T16:04:08.139Z,17.00
2019-04-14T16:06:40.634Z,17.10
2019-04-14T16:09:18.122Z,16.10
2019-04-14T16:11:53.873Z,16.20
2019-04-14T16:14:25.961Z,16.30
2019-04-14T16:17:02.011Z,16.80
2019-04-14T16:19:46.776Z,16.10
2019-04-14T16:22:15.150Z,16.00
2019-04-14T16:24:45.210Z,15.90
2019-04-14T16:27:31.692Z,15.50
2019-04-14T16:30:07.646Z,15.30
2019-04-14T16:32:37.662Z,14.60
2019-04-14T16:35:11.918Z,14.60
2019-04-14T16:37:40.282Z,15.00
2019-04-14T16:40:08.643Z,13.90
2019-04-14T16:42:37.049Z,12.80
2019-04-14T16:45:06.185Z,12.30
2019-04-14T16:47:36.211Z,12.10
2019-04-14T16:50:05.361Z,12.20
2019-04-14T16:52:38.417Z,11.90
2019-04-14T16:55:23.101Z,11.60
2019-04-14T16:57:53.141Z,11.30
2019-04-14T17:00:23.156Z,10.70
2019-04-14T17:02:51.590Z,10.10
2019-04-14T17:05:19.970Z,9.90
2019-04-14T17:07:48.406Z,9.80
2019-04-14T17:10:16.911Z,9.90
2019-04-14T17:12:45.266Z,9.80
2019-04-14T17:15:22.673Z,9.40
2019-04-14T17:18:09.222Z,9.40
2019-04-14T17:20:43.166Z,9.40
2019-04-14T17:23:22.133Z,9.70
2019-04-14T17:25:52.154Z,9.30
2019-04-14T17:28:22.158Z,9.20
2019-04-14T17:30:52.216Z,9.20
2019-04-14T17:33:26.906Z,9.10
2019-04-14T17:36:12.318Z,9.10
2019-04-14T17:38:43.399Z,9.10
2019-04-14T17:41:29.630Z,9.00
2019-04-14T17:43:59.649Z,9.10
2019-04-14T17:46:31.173Z,8.60
2019-04-14T17:49:01.213Z,8.60
2019-04-14T17:51:47.411Z,8.40
2019-04-14T17:54:29.178Z,8.50
2019-04-14T17:57:00.794Z,8.20
2019-04-14T17:59:33.812Z,8.00
2019-04-14T18:02:10.104Z,8.00
2019-04-14T18:04:41.019Z,8.00
2019-04-14T18:07:13.777Z,7.90
2019-04-14T18:09:46.525Z,7.70
2019-04-14T18:12:19.265Z,7.70
2019-04-14T18:14:53.271Z,7.70
2019-04-14T18:17:26.015Z,7.50
2019-04-14T18:19:56.852Z,7.40
2019-04-14T18:22:25.385Z,7.30
2019-04-14T18:24:53.846Z,7.20
2019-04-14T18:27:22.235Z,7.10
2019-04-14T18:29:57.893Z,7.10
2019-04-14T18:32:30.606Z,7.00
2019-04-14T18:35:09.845Z,6.90
2019-04-14T18:37:47.819Z,6.90
2019-04-14T18:40:17.820Z,6.70
2019-04-14T18:43:04.374Z,6.60
2019-04-14T18:45:34.408Z,6.50
2019-04-14T18:48:13.406Z,6.40
2019-04-14T18:50:52.514Z,6.30
2019-04-14T18:53:28.586Z,6.30
2019-04-14T18:55:58.635Z,6.20
2019-04-14T18:58:44.674Z,6.20
2019-04-14T19:01:20.535Z,6.10
2019-04-14T19:03:48.930Z,6.00
2019-04-14T19:06:17.397Z,6.00
2019-04-14T19:08:45.779Z,5.80
2019-04-14T19:11:15.833Z,5.90
2019-04-14T19:14:02.157Z,5.80
2019-04-14T19:16:44.283Z,5.70
2019-04-14T19:21:37.219Z,5.70
2019-04-14T19:24:05.601Z,5.60
2019-04-14T19:26:34.006Z,5.50
2019-04-14T19:29:02.374Z,5.40
2019-04-14T19:31:30.754Z,5.30
2019-04-14T19:33:59.349Z,5.20
2019-04-14T19:36:27.839Z,5.30
2019-04-14T19:38:56.204Z,5.00
2019-04-14T19:41:27.442Z,4.70
2019-04-14T19:43:55.898Z,4.50
2019-04-14T19:46:24.218Z,4.30
2019-04-14T19:48:52.618Z,4.00
2019-04-14T19:51:21.202Z,3.90
2019-04-14T19:53:49.584Z,3.80
2019-04-14T19:56:17.980Z,3.60
2019-04-14T19:58:46.368Z,3.60
2019-04-14T20:01:14.732Z,3.40
2019-04-14T20:03:43.102Z,3.30
2019-04-14T20:06:11.534Z,3.20
2019-04-14T20:08:39.827Z,3.10
2019-04-14T20:11:08.270Z,3.00
2019-04-14T20:13:40.884Z,3.10
2019-04-14T20:16:10.968Z,2.80
2019-04-14T20:18:56.033Z,2.80
2019-04-14T20:21:28.558Z,2.60
2019-04-14T20:24:07.254Z,2.60
2019-04-14T20:26:40.249Z,2.50
2019-04-14T20:29:13.209Z,2.40
2019-04-14T20:31:59.801Z,2.30
2019-04-14T20:34:28.362Z,2.20
2019-04-14T20:36:56.743Z,2.20
2019-04-14T20:39:26.895Z,2.10
2019-04-14T20:41:55.278Z,2.10
2019-04-14T20:44:23.702Z,1.90
2019-04-14T20:46:52.081Z,1.70
2019-04-14T20:49:20.486Z,2.00
2019-04-14T20:51:48.861Z,1.90
2019-04-14T20:54:18.152Z,1.70
2019-04-14T20:56:46.484Z,1.80
2019-04-14T20:59:14.894Z,1.70
2019-04-14T21:01:44.978Z,1.70
2019-04-14T21:04:27.034Z,1.60
2019-04-14T21:07:12.759Z,1.60
2019-04-14T21:09:48.733Z,1.50
2019-04-14T21:12:35.086Z,1.60
2019-04-14T21:15:07.839Z,1.60
2019-04-14T21:17:37.996Z,1.70
2019-04-14T21:20:10.860Z,1.70
2019-04-14T21:22:57.478Z,1.60
2019-04-14T21:25:33.312Z,1.60
2019-04-14T21:28:03.363Z,1.40
2019-04-14T21:30:33.390Z,1.20
2019-04-14T21:33:12.622Z,1.10
2019-04-14T21:35:54.622Z,1.00
2019-04-14T21:38:41.301Z,0.80
2019-04-14T21:41:11.422Z,0.70
2019-04-14T21:43:39.830Z,0.70
2019-04-14T21:46:09.123Z,0.50
2019-04-14T21:48:37.505Z,0.70
2019-04-14T21:51:05.837Z,0.80
2019-04-14T21:53:34.541Z,0.90
2019-04-14T21:56:12.807Z,0.90
2019-04-14T21:58:37.069Z,0.80
2019-04-14T22:01:26.430Z,0.80
2019-04-14T22:04:12.933Z,0.70
2019-04-14T22:06:51.989Z,0.60
2019-04-14T22:09:33.818Z,0.60
2019-04-14T22:12:03.817Z,0.50
2019-04-14T22:14:33.195Z,0.40
2019-04-14T22:17:01.646Z,0.30
2019-04-14T22:19:30.506Z,0.10
2019-04-14T22:21:58.818Z,0.00
2019-04-14T22:24:27.250Z,0.00
2019-04-14T22:26:55.710Z,0.00
2019-04-14T22:29:24.090Z,0.00
2019-04-14T22:31:52.524Z,-0.10
2019-04-14T22:34:21.058Z,-0.10
2019-04-14T22:36:49.576Z,0.00
2019-04-14T22:39:18.398Z,0.00
2019-04-14T22:41:46.923Z,0.00
2019-04-14T22:44:15.368Z,-0.10
2019-04-14T22:46:43.750Z,-0.20
2019-04-14T22:49:12.335Z,-0.10
2019-04-14T22:51:40.801Z,-0.20
2019-04-14T22:54:10.381Z,-0.20
2019-04-14T22:56:39.794Z,-0.20
2019-04-14T22:59:08.301Z,-0.20
2019-04-14T23:01:38.423Z,-0.30
2019-04-14T23:04:24.693Z,-0.30
2019-04-14T23:07:06.784Z,-0.30
2019-04-14T23:09:36.806Z,-0.30
2019-04-14T23:12:23.094Z,-0.30
2019-04-14T23:15:09.286Z,-0.40
2019-04-14T23:17:39.338Z,-0.60
2019-04-14T23:20:18.264Z,-0.60
2019-04-14T23:22:48.348Z,-0.60
2019-04-14T23:25:16.731Z,-0.50
2019-04-14T23:27:45.159Z,-0.50
2019-04-14T23:30:13.702Z,-0.60
2019-04-14T23:32:42.075Z,-0.60
2019-04-14T23:35:10.518Z,-0.70
2019-04-14T23:37:38.828Z,-0.80
2019-04-14T23:40:07.515Z,-0.70
2019-04-14T23:42:35.809Z,-0.80
2019-04-14T23:45:07.095Z,-0.90
2019-04-14T23:47:35.457Z,-1.00
2019-04-14T23:50:06.380Z,-1.00
2019-04-14T23:52:34.703Z,-1.00
2019-04-14T23:55:03.455Z,-1.00
2019-04-14T23:57:31.895Z,-1.10
